Fulks Run, VA (22830)

6:43 PM EDT on April 24, 2017 (GMT -0400)
Broadway FD | | Change Station

Elev 1047 ft 38.61 °N, 78.80 °W | Updated 2 seconds ago

Rain
Rain
49.1 °F
Feels Like 47 °F
N
6.0
Wind Variable Wind from North
Gusts 7.0 mph

Today
High -- | Low -- °F
--% Chance of Precip.
Yesterday
High -- | Low -- °F
Precip. -- in
Pressure 30.01 in
Visibility 7.0 miles
Clouds Mostly Cloudy 2000 ft
Overcast 2500 ft
Windchill 47 °F
Dew Point 47 °F
Humidity 93%
Rainfall 0.70 in
Snow Depth Not available.
6:26 AM 8:01 PM
Waning Crescent, 4% visible
METAR KLUA 242235Z AUTO 02010G18KT 7SM -RA BKN020 OVC025 09/09 A3001 RMK AO2 P0005
Pressure 30.01 in
Visibility 7.0 miles
Clouds Mostly Cloudy 2000 ft
Overcast 2500 ft
Windchill 47 °F
Dew Point 47 °F
Humidity 93%
Rainfall 0.70 in
Snow Depth Not available.
6:26 AM 8:01 PM
Waning Crescent, 4% visible
METAR KLUA 242235Z AUTO 02010G18KT 7SM -RA BKN020 OVC025 09/09 A3001 RMK AO2 P0005

Get Severe Weather Alerts

Thanks for signing up!

Be on the lookout for a verification email in your inbox.

You'll start receiving the daily forecast at 8 AM.

×

10-Day Weather Forecast

Almanac

Astronomy

Apr. 24, 2017 Rise Set
Actual Time
Civil Twilight
Nautical Twilight
Astronomical Twilight
Moon
Length of Visible Light
Length of Day
Tomorrow will be .
, % of the Moon is Illuminated

Today's Extremes

State Highs State Lows

Community

WunderPhotos

WunderBlog® & News

Nearby

Air Quality

  Air Quality AQ Index Pollutant
Not available.

Snow Depth

Station Depth Elevation

Earthquake Activity

City Distance Mag. Time & Date
Minimum magnitude displayed is 2.5.

Coastal Water Temperatures

Place Temperature

Stations

Nearby Weather Stations

Station Location Temp. Windchill Dew Point Humidity Wind Precip. Elev Updated Type
                   

Watches & Warnings

There are currently no watches in effect.